sensor_id;sensor_type;location;lat;lon;timestamp;pressure;altitude;pressure_sealevel;temperature;humidity
78383;BME280;67668;52.294;4.692;2023-06-26T00:02:31;101241.53;;;27.84;45.64
78383;BME280;67668;52.294;4.692;2023-06-26T00:04:58;101245.53;;;27.81;45.17
78383;BME280;67668;52.294;4.692;2023-06-26T00:07:23;101239.78;;;27.78;45.13
78383;BME280;67668;52.294;4.692;2023-06-26T00:09:49;101244.06;;;27.73;44.73
78383;BME280;67668;52.294;4.692;2023-06-26T00:12:14;101251.22;;;27.63;43.22
78383;BME280;67668;52.294;4.692;2023-06-26T00:14:39;101244.75;;;27.52;43.05
78383;BME280;67668;52.294;4.692;2023-06-26T00:17:05;101254.72;;;27.47;44.28
78383;BME280;67668;52.294;4.692;2023-06-26T00:19:30;101257.94;;;27.44;43.92
78383;BME280;67668;52.294;4.692;2023-06-26T00:21:56;101263.00;;;27.40;44.27
78383;BME280;67668;52.294;4.692;2023-06-26T00:24:21;101270.47;;;27.33;44.03
78383;BME280;67668;52.294;4.692;2023-06-26T00:26:47;101267.28;;;27.24;44.55
78383;BME280;67668;52.294;4.692;2023-06-26T00:29:13;101264.81;;;27.23;44.95
78383;BME280;67668;52.294;4.692;2023-06-26T00:31:38;101259.63;;;27.21;45.14
78383;BME280;67668;52.294;4.692;2023-06-26T00:34:05;101268.25;;;27.18;45.63
78383;BME280;67668;52.294;4.692;2023-06-26T00:36:31;101269.81;;;27.14;45.65
78383;BME280;67668;52.294;4.692;2023-06-26T00:38:56;101273.25;;;27.10;45.95
78383;BME280;67668;52.294;4.692;2023-06-26T00:41:21;101276.09;;;27.03;45.97
78383;BME280;67668;52.294;4.692;2023-06-26T00:43:47;101265.72;;;26.89;46.29
78383;BME280;67668;52.294;4.692;2023-06-26T00:46:13;101260.28;;;26.77;46.34
78383;BME280;67668;52.294;4.692;2023-06-26T00:48:41;101271.00;;;26.72;46.43
78383;BME280;67668;52.294;4.692;2023-06-26T00:51:07;101276.44;;;26.72;46.66
78383;BME280;67668;52.294;4.692;2023-06-26T00:53:32;101274.81;;;26.71;46.90
78383;BME280;67668;52.294;4.692;2023-06-26T00:55:59;101275.75;;;26.65;46.42
78383;BME280;67668;52.294;4.692;2023-06-26T00:58:24;101281.16;;;26.65;46.61
78383;BME280;67668;52.294;4.692;2023-06-26T01:00:53;101288.75;;;26.63;47.13
78383;BME280;67668;52.294;4.692;2023-06-26T01:03:19;101282.94;;;26.59;46.89
78383;BME280;67668;52.294;4.692;2023-06-26T01:05:46;101278.81;;;26.57;46.97
78383;BME280;67668;52.294;4.692;2023-06-26T01:08:17;101284.72;;;26.54;46.83
78383;BME280;67668;52.294;4.692;2023-06-26T01:10:43;101284.59;;;26.49;47.28
78383;BME280;67668;52.294;4.692;2023-06-26T01:13:08;101287.78;;;26.46;47.17
78383;BME280;67668;52.294;4.692;2023-06-26T01:15:34;101287.31;;;26.37;47.24
78383;BME280;67668;52.294;4.692;2023-06-26T01:17:59;101286.97;;;26.34;47.62
78383;BME280;67668;52.294;4.692;2023-06-26T01:20:27;101277.63;;;26.30;47.72
78383;BME280;67668;52.294;4.692;2023-06-26T01:25:50;101278.09;;;26.27;47.63
78383;BME280;67668;52.294;4.692;2023-06-26T01:28:19;101274.81;;;26.25;48.21
78383;BME280;67668;52.294;4.692;2023-06-26T01:30:45;101271.47;;;26.23;48.15
78383;BME280;67668;52.294;4.692;2023-06-26T01:33:11;101255.53;;;26.14;48.32
78383;BME280;67668;52.294;4.692;2023-06-26T01:35:37;101257.88;;;26.11;48.30
78383;BME280;67668;52.294;4.692;2023-06-26T01:38:14;101268.22;;;26.02;48.89
78383;BME280;67668;52.294;4.692;2023-06-26T01:40:40;101272.50;;;25.98;49.00
78383;BME280;67668;52.294;4.692;2023-06-26T01:45:59;101292.38;;;25.92;48.80
78383;BME280;67668;52.294;4.692;2023-06-26T01:48:31;101298.16;;;25.84;48.97
78383;BME280;67668;52.294;4.692;2023-06-26T01:50:58;101296.81;;;25.75;49.65
78383;BME280;67668;52.294;4.692;2023-06-26T01:53:25;101295.63;;;25.71;49.63
78383;BME280;67668;52.294;4.692;2023-06-26T01:56:00;101281.69;;;25.67;49.66
78383;BME280;67668;52.294;4.692;2023-06-26T01:58:29;101269.06;;;25.61;50.05
78383;BME280;67668;52.294;4.692;2023-06-26T02:00:54;101271.63;;;25.56;50.60
78383;BME280;67668;52.294;4.692;2023-06-26T02:03:20;101291.66;;;25.55;51.16
78383;BME280;67668;52.294;4.692;2023-06-26T02:05:45;101288.94;;;25.55;51.08
78383;BME280;67668;52.294;4.692;2023-06-26T02:08:13;101292.47;;;25.56;51.04
78383;BME280;67668;52.294;4.692;2023-06-26T02:10:39;101290.00;;;25.54;51.34
78383;BME280;67668;52.294;4.692;2023-06-26T02:13:04;101287.53;;;25.53;51.13
78383;BME280;67668;52.294;4.692;2023-06-26T02:15:30;101277.13;;;25.50;51.28
78383;BME280;67668;52.294;4.692;2023-06-26T02:17:55;101297.59;;;25.46;51.58
78383;BME280;67668;52.294;4.692;2023-06-26T02:20:21;101288.94;;;25.37;51.67
78383;BME280;67668;52.294;4.692;2023-06-26T02:22:46;101299.22;;;25.35;51.42
78383;BME280;67668;52.294;4.692;2023-06-26T02:25:11;101297.75;;;25.33;51.78
78383;BME280;67668;52.294;4.692;2023-06-26T02:27:38;101301.53;;;25.32;51.74
78383;BME280;67668;52.294;4.692;2023-06-26T02:30:04;101298.22;;;25.30;51.46
78383;BME280;67668;52.294;4.692;2023-06-26T02:32:32;101289.50;;;25.28;51.34
78383;BME280;67668;52.294;4.692;2023-06-26T02:34:57;101294.09;;;25.27;51.56
78383;BME280;67668;52.294;4.692;2023-06-26T02:37:23;101298.91;;;25.25;51.47
78383;BME280;67668;52.294;4.692;2023-06-26T02:39:48;101301.84;;;25.24;50.95
78383;BME280;67668;52.294;4.692;2023-06-26T02:42:14;101294.16;;;25.20;51.58
78383;BME280;67668;52.294;4.692;2023-06-26T02:44:39;101300.03;;;25.17;51.57
78383;BME280;67668;52.294;4.692;2023-06-26T02:47:05;101313.00;;;25.15;51.47
78383;BME280;67668;52.294;4.692;2023-06-26T02:49:31;101308.84;;;25.13;51.56
78383;BME280;67668;52.294;4.692;2023-06-26T02:51:56;101313.06;;;25.09;51.43
78383;BME280;67668;52.294;4.692;2023-06-26T02:54:22;101311.63;;;25.06;51.70
78383;BME280;67668;52.294;4.692;2023-06-26T02:56:47;101312.06;;;25.03;51.33
78383;BME280;67668;52.294;4.692;2023-06-26T02:59:13;101313.56;;;24.99;51.56
78383;BME280;67668;52.294;4.692;2023-06-26T03:01:39;101328.38;;;24.97;51.57
78383;BME280;67668;52.294;4.692;2023-06-26T03:04:04;101328.47;;;24.90;51.85
78383;BME280;67668;52.294;4.692;2023-06-26T03:06:29;101325.59;;;24.85;51.88
78383;BME280;67668;52.294;4.692;2023-06-26T03:08:55;101327.91;;;24.82;51.44
78383;BME280;67668;52.294;4.692;2023-06-26T03:11:20;101338.34;;;24.78;51.76
78383;BME280;67668;52.294;4.692;2023-06-26T03:13:46;101343.97;;;24.77;51.80
78383;BME280;67668;52.294;4.692;2023-06-26T03:16:12;101350.66;;;24.74;51.53
78383;BME280;67668;52.294;4.692;2023-06-26T03:18:37;101346.53;;;24.72;51.79
78383;BME280;67668;52.294;4.692;2023-06-26T03:21:03;101362.16;;;24.69;51.67
78383;BME280;67668;52.294;4.692;2023-06-26T03:23:28;101359.88;;;24.66;51.62
78383;BME280;67668;52.294;4.692;2023-06-26T03:25:53;101350.78;;;24.61;51.39
78383;BME280;67668;52.294;4.692;2023-06-26T03:28:19;101360.19;;;24.58;51.52
78383;BME280;67668;52.294;4.692;2023-06-26T03:30:44;101366.88;;;24.56;51.48
78383;BME280;67668;52.294;4.692;2023-06-26T03:33:10;101360.25;;;24.52;51.47
78383;BME280;67668;52.294;4.692;2023-06-26T03:35:36;101365.47;;;24.47;51.57
78383;BME280;67668;52.294;4.692;2023-06-26T03:38:01;101365.91;;;24.44;51.35
78383;BME280;67668;52.294;4.692;2023-06-26T03:40:27;101368.47;;;24.39;51.68
78383;BME280;67668;52.294;4.692;2023-06-26T03:42:52;101371.59;;;24.36;51.69
78383;BME280;67668;52.294;4.692;2023-06-26T03:45:18;101359.31;;;24.33;51.42
78383;BME280;67668;52.294;4.692;2023-06-26T03:47:44;101368.72;;;24.31;51.36
78383;BME280;67668;52.294;4.692;2023-06-26T03:50:12;101373.53;;;24.29;51.34
78383;BME280;67668;52.294;4.692;2023-06-26T03:52:37;101385.81;;;24.25;51.35
78383;BME280;67668;52.294;4.692;2023-06-26T03:55:03;101392.09;;;24.18;51.45
78383;BME280;67668;52.294;4.692;2023-06-26T03:57:29;101384.19;;;24.17;51.59
78383;BME280;67668;52.294;4.692;2023-06-26T03:59:55;101390.28;;;24.12;51.82
78383;BME280;67668;52.294;4.692;2023-06-26T04:02:20;101390.69;;;24.09;51.72
78383;BME280;67668;52.294;4.692;2023-06-26T04:04:46;101407.31;;;24.06;51.91
78383;BME280;67668;52.294;4.692;2023-06-26T04:07:11;101407.75;;;24.03;52.10
78383;BME280;67668;52.294;4.692;2023-06-26T04:09:36;101411.13;;;23.99;52.06
78383;BME280;67668;52.294;4.692;2023-06-26T04:12:02;101410.50;;;23.97;52.26
78383;BME280;67668;52.294;4.692;2023-06-26T04:14:27;101422.56;;;23.94;52.03
78383;BME280;67668;52.294;4.692;2023-06-26T04:16:53;101419.28;;;23.92;52.40
78383;BME280;67668;52.294;4.692;2023-06-26T04:19:18;101418.88;;;23.89;52.42
78383;BME280;67668;52.294;4.692;2023-06-26T04:21:44;101427.19;;;23.87;52.67
78383;BME280;67668;52.294;4.692;2023-06-26T04:24:10;101423.03;;;23.85;52.26
78383;BME280;67668;52.294;4.692;2023-06-26T04:26:35;101418.91;;;23.82;52.91
78383;BME280;67668;52.294;4.692;2023-06-26T04:29:01;101435.31;;;23.81;52.19
78383;BME280;67668;52.294;4.692;2023-06-26T04:31:27;101438.44;;;23.78;52.60
78383;BME280;67668;52.294;4.692;2023-06-26T04:33:52;101435.16;;;23.76;52.65
78383;BME280;67668;52.294;4.692;2023-06-26T04:36:20;101437.22;;;23.74;52.68
78383;BME280;67668;52.294;4.692;2023-06-26T04:38:46;101428.50;;;23.72;52.96
78383;BME280;67668;52.294;4.692;2023-06-26T04:41:13;101436.19;;;23.68;52.64
78383;BME280;67668;52.294;4.692;2023-06-26T04:43:39;101445.34;;;23.67;52.71
78383;BME280;67668;52.294;4.692;2023-06-26T04:46:05;101445.56;;;23.65;52.84
78383;BME280;67668;52.294;4.692;2023-06-26T04:48:31;101445.16;;;23.62;53.01
78383;BME280;67668;52.294;4.692;2023-06-26T04:51:05;101444.53;;;23.60;53.00
78383;BME280;67668;52.294;4.692;2023-06-26T04:53:31;101448.50;;;23.57;53.31
78383;BME280;67668;52.294;4.692;2023-06-26T04:55:56;101455.59;;;23.52;53.37
78383;BME280;67668;52.294;4.692;2023-06-26T04:58:21;101446.84;;;23.50;52.85
78383;BME280;67668;52.294;4.692;2023-06-26T05:00:47;101450.81;;;23.47;53.40
78383;BME280;67668;52.294;4.692;2023-06-26T05:03:13;101460.78;;;23.47;53.34
78383;BME280;67668;52.294;4.692;2023-06-26T05:05:39;101461.63;;;23.47;53.37
78383;BME280;67668;52.294;4.692;2023-06-26T05:10:43;101478.06;;;23.46;53.47
78383;BME280;67668;52.294;4.692;2023-06-26T05:13:09;101481.19;;;23.43;53.37
78383;BME280;67668;52.294;4.692;2023-06-26T05:15:35;101481.97;;;23.37;53.52
78383;BME280;67668;52.294;4.692;2023-06-26T05:18:00;101488.84;;;23.33;53.93
78383;BME280;67668;52.294;4.692;2023-06-26T05:20:25;101490.50;;;23.34;53.69
78383;BME280;67668;52.294;4.692;2023-06-26T05:22:51;101488.84;;;23.33;54.35
78383;BME280;67668;52.294;4.692;2023-06-26T05:25:18;101494.66;;;23.30;54.21
78383;BME280;67668;52.294;4.692;2023-06-26T05:27:43;101504.66;;;23.29;54.11
78383;BME280;67668;52.294;4.692;2023-06-26T05:30:09;101493.84;;;23.29;54.45
78383;BME280;67668;52.294;4.692;2023-06-26T05:32:37;101505.06;;;23.33;54.57
78383;BME280;67668;52.294;4.692;2023-06-26T05:35:03;101519.19;;;23.35;54.44
78383;BME280;67668;52.294;4.692;2023-06-26T05:37:30;101520.84;;;23.36;54.21
78383;BME280;67668;52.294;4.692;2023-06-26T05:39:56;101517.09;;;23.37;54.41
78383;BME280;67668;52.294;4.692;2023-06-26T05:42:22;101519.78;;;23.37;54.46
78383;BME280;67668;52.294;4.692;2023-06-26T05:44:47;101527.69;;;23.38;54.56
78383;BME280;67668;52.294;4.692;2023-06-26T05:47:12;101538.50;;;23.38;54.90
78383;BME280;67668;52.294;4.692;2023-06-26T05:49:38;101546.00;;;23.30;55.52
78383;BME280;67668;52.294;4.692;2023-06-26T05:52:03;101543.91;;;23.32;55.17
78383;BME280;67668;52.294;4.692;2023-06-26T05:54:29;101545.34;;;23.34;55.41
78383;BME280;67668;52.294;4.692;2023-06-26T05:56:56;101545.34;;;23.34;55.68
78383;BME280;67668;52.294;4.692;2023-06-26T05:59:24;101558.44;;;23.31;55.29
78383;BME280;67668;52.294;4.692;2023-06-26T06:01:49;101549.94;;;23.34;54.86
78383;BME280;67668;52.294;4.692;2023-06-26T06:04:15;101543.50;;;23.35;55.24
78383;BME280;67668;52.294;4.692;2023-06-26T06:06:40;101553.88;;;23.38;55.22
78383;BME280;67668;52.294;4.692;2023-06-26T06:09:06;101550.78;;;23.41;54.99
78383;BME280;67668;52.294;4.692;2023-06-26T06:11:31;101554.94;;;23.43;55.20
78383;BME280;67668;52.294;4.692;2023-06-26T06:13:56;101562.84;;;23.45;54.63
78383;BME280;67668;52.294;4.692;2023-06-26T06:16:24;101568.06;;;23.46;54.05
78383;BME280;67668;52.294;4.692;2023-06-26T06:18:49;101576.16;;;23.46;53.99
78383;BME280;67668;52.294;4.692;2023-06-26T06:21:14;101578.22;;;23.44;53.91
78383;BME280;67668;52.294;4.692;2023-06-26T06:23:40;101591.53;;;23.46;53.49
78383;BME280;67668;52.294;4.692;2023-06-26T06:26:05;101585.28;;;23.39;53.38
78383;BME280;67668;52.294;4.692;2023-06-26T06:28:31;101596.72;;;23.41;53.47
78383;BME280;67668;52.294;4.692;2023-06-26T06:30:56;101586.56;;;23.43;53.25
78383;BME280;67668;52.294;4.692;2023-06-26T06:33:21;101595.88;;;23.47;53.27
78383;BME280;67668;52.294;4.692;2023-06-26T06:35:47;101592.75;;;23.50;52.79
78383;BME280;67668;52.294;4.692;2023-06-26T06:38:12;101598.41;;;23.55;53.06
78383;BME280;67668;52.294;4.692;2023-06-26T06:40:38;101606.09;;;23.58;53.02
78383;BME280;67668;52.294;4.692;2023-06-26T06:43:03;101614.00;;;23.59;52.45
78383;BME280;67668;52.294;4.692;2023-06-26T06:45:29;101614.00;;;23.53;52.09
78383;BME280;67668;52.294;4.692;2023-06-26T06:47:54;101615.88;;;23.59;52.65
78383;BME280;67668;52.294;4.692;2023-06-26T06:50:20;101614.81;;;23.60;52.09
78383;BME280;67668;52.294;4.692;2023-06-26T06:52:45;101622.91;;;23.66;52.58
78383;BME280;67668;52.294;4.692;2023-06-26T06:55:11;101627.69;;;23.71;52.24
78383;BME280;67668;52.294;4.692;2023-06-26T06:57:37;101638.75;;;23.76;52.24
78383;BME280;67668;52.294;4.692;2023-06-26T07:00:05;101631.84;;;23.80;51.96
78383;BME280;67668;52.294;4.692;2023-06-26T07:02:34;101638.72;;;23.83;51.69
78383;BME280;67668;52.294;4.692;2023-06-26T07:04:59;101649.31;;;23.91;51.52
78383;BME280;67668;52.294;4.692;2023-06-26T07:07:28;101643.28;;;23.95;51.44
78383;BME280;67668;52.294;4.692;2023-06-26T07:09:53;101644.31;;;24.01;51.55
78383;BME280;67668;52.294;4.692;2023-06-26T07:12:19;101642.63;;;24.06;51.70
78383;BME280;67668;52.294;4.692;2023-06-26T07:14:44;101642.66;;;24.13;51.21
78383;BME280;67668;52.294;4.692;2023-06-26T07:17:10;101637.22;;;24.19;50.76
78383;BME280;67668;52.294;4.692;2023-06-26T07:19:35;101648.03;;;24.26;51.10
78383;BME280;67668;52.294;4.692;2023-06-26T07:22:01;101651.56;;;24.33;50.63
78383;BME280;67668;52.294;4.692;2023-06-26T07:24:26;101653.44;;;24.39;50.25
78383;BME280;67668;52.294;4.692;2023-06-26T07:26:51;101663.59;;;24.44;49.30
78383;BME280;67668;52.294;4.692;2023-06-26T07:29:17;101660.44;;;24.53;49.50
78383;BME280;67668;52.294;4.692;2023-06-26T07:31:42;101669.19;;;24.62;49.29
78383;BME280;67668;52.294;4.692;2023-06-26T07:34:09;101680.41;;;24.72;48.78
78383;BME280;67668;52.294;4.692;2023-06-26T07:36:35;101673.06;;;24.79;48.27
78383;BME280;67668;52.294;4.692;2023-06-26T07:39:00;101681.19;;;24.92;47.22
78383;BME280;67668;52.294;4.692;2023-06-26T07:41:25;101682.34;;;25.03;47.59
78383;BME280;67668;52.294;4.692;2023-06-26T07:43:51;101680.81;;;25.20;46.78
78383;BME280;67668;52.294;4.692;2023-06-26T07:46:16;101685.53;;;25.31;46.56
78383;BME280;67668;52.294;4.692;2023-06-26T07:48:42;101687.16;;;25.39;47.60
78383;BME280;67668;52.294;4.692;2023-06-26T07:51:07;101709.19;;;25.49;46.89
78383;BME280;67668;52.294;4.692;2023-06-26T07:53:32;101689.16;;;25.56;46.77
78383;BME280;67668;52.294;4.692;2023-06-26T07:55:58;101693.88;;;25.67;46.66
78383;BME280;67668;52.294;4.692;2023-06-26T07:58:23;101699.63;;;25.78;46.68
78383;BME280;67668;52.294;4.692;2023-06-26T08:00:50;101701.00;;;25.87;45.68
78383;BME280;67668;52.294;4.692;2023-06-26T08:03:16;101704.72;;;25.92;43.90
78383;BME280;67668;52.294;4.692;2023-06-26T08:05:41;101708.84;;;26.01;44.25
78383;BME280;67668;52.294;4.692;2023-06-26T08:08:07;101709.53;;;26.15;45.51
78383;BME280;67668;52.294;4.692;2023-06-26T08:10:32;101710.25;;;26.29;45.24
78383;BME280;67668;52.294;4.692;2023-06-26T08:12:58;101712.03;;;26.41;43.87
78383;BME280;67668;52.294;4.692;2023-06-26T08:15:23;101717.06;;;26.56;43.70
78383;BME280;67668;52.294;4.692;2023-06-26T08:17:49;101716.09;;;26.68;43.74
78383;BME280;67668;52.294;4.692;2023-06-26T08:20:15;101707.00;;;26.81;43.30
78383;BME280;67668;52.294;4.692;2023-06-26T08:22:41;101707.16;;;26.86;42.14
78383;BME280;67668;52.294;4.692;2023-06-26T08:25:06;101714.75;;;26.96;42.17
78383;BME280;67668;52.294;4.692;2023-06-26T08:27:32;101720.84;;;27.09;41.97
78383;BME280;67668;52.294;4.692;2023-06-26T08:29:58;101718.19;;;27.21;41.57
78383;BME280;67668;52.294;4.692;2023-06-26T08:32:23;101721.06;;;27.38;41.32
78383;BME280;67668;52.294;4.692;2023-06-26T08:34:49;101712.53;;;27.52;40.54
78383;BME280;67668;52.294;4.692;2023-06-26T08:37:16;101715.88;;;27.66;40.82
78383;BME280;67668;52.294;4.692;2023-06-26T08:39:41;101720.53;;;27.77;40.67
78383;BME280;67668;52.294;4.692;2023-06-26T08:42:06;101724.44;;;27.93;40.27
78383;BME280;67668;52.294;4.692;2023-06-26T08:44:32;101734.75;;;28.02;39.02
78383;BME280;67668;52.294;4.692;2023-06-26T08:47:00;101731.25;;;28.13;38.97
78383;BME280;67668;52.294;4.692;2023-06-26T08:49:30;101726.28;;;28.22;39.63
78383;BME280;67668;52.294;4.692;2023-06-26T08:52:17;101744.88;;;28.37;39.42
78383;BME280;67668;52.294;4.692;2023-06-26T08:54:46;101752.81;;;28.50;38.89
78383;BME280;67668;52.294;4.692;2023-06-26T08:57:18;101746.00;;;28.64;39.07
78383;BME280;67668;52.294;4.692;2023-06-26T08:59:45;101754.78;;;28.78;38.06
78383;BME280;67668;52.294;4.692;2023-06-26T09:02:11;101763.31;;;28.93;37.73
78383;BME280;67668;52.294;4.692;2023-06-26T09:04:36;101750.81;;;29.08;37.77
78383;BME280;67668;52.294;4.692;2023-06-26T09:07:02;101760.25;;;29.17;37.25
78383;BME280;67668;52.294;4.692;2023-06-26T09:09:28;101766.41;;;29.24;35.66
78383;BME280;67668;52.294;4.692;2023-06-26T09:11:53;101768.66;;;29.39;37.00
78383;BME280;67668;52.294;4.692;2023-06-26T09:14:19;101765.03;;;29.50;36.70
78383;BME280;67668;52.294;4.692;2023-06-26T09:16:45;101769.38;;;29.63;36.72
78383;BME280;67668;52.294;4.692;2023-06-26T09:19:11;101781.63;;;29.77;36.73
78383;BME280;67668;52.294;4.692;2023-06-26T09:21:41;101781.81;;;29.87;35.71
78383;BME280;67668;52.294;4.692;2023-06-26T09:24:07;101780.59;;;29.95;35.32
78383;BME280;67668;52.294;4.692;2023-06-26T09:26:35;101781.34;;;30.07;34.57
78383;BME280;67668;52.294;4.692;2023-06-26T09:29:01;101789.88;;;30.10;34.61
78383;BME280;67668;52.294;4.692;2023-06-26T09:31:26;101793.59;;;30.21;35.00
78383;BME280;67668;52.294;4.692;2023-06-26T09:33:58;101802.28;;;30.35;35.03
78383;BME280;67668;52.294;4.692;2023-06-26T09:36:27;101802.22;;;30.46;34.10
78383;BME280;67668;52.294;4.692;2023-06-26T09:38:53;101803.69;;;30.54;34.53
78383;BME280;67668;52.294;4.692;2023-06-26T09:41:19;101809.25;;;30.59;33.87
78383;BME280;67668;52.294;4.692;2023-06-26T09:43:46;101815.63;;;30.64;34.69
78383;BME280;67668;52.294;4.692;2023-06-26T09:46:16;101808.97;;;30.77;34.16
78383;BME280;67668;52.294;4.692;2023-06-26T09:48:42;101815.63;;;30.86;33.53
78383;BME280;67668;52.294;4.692;2023-06-26T09:51:07;101825.84;;;30.91;33.42
78383;BME280;67668;52.294;4.692;2023-06-26T09:53:35;101814.56;;;31.04;33.60
78383;BME280;67668;52.294;4.692;2023-06-26T09:56:07;101836.09;;;31.00;32.79
78383;BME280;67668;52.294;4.692;2023-06-26T09:58:40;101833.47;;;31.05;33.57
78383;BME280;67668;52.294;4.692;2023-06-26T10:01:07;101833.84;;;31.14;31.72
78383;BME280;67668;52.294;4.692;2023-06-26T10:03:34;101839.47;;;31.29;32.57
78383;BME280;67668;52.294;4.692;2023-06-26T10:06:00;101846.75;;;31.40;32.12
78383;BME280;67668;52.294;4.692;2023-06-26T10:08:27;101853.75;;;31.53;32.36
78383;BME280;67668;52.294;4.692;2023-06-26T10:10:53;101859.94;;;31.65;32.19
78383;BME280;67668;52.294;4.692;2023-06-26T10:13:28;101858.28;;;31.64;31.16
78383;BME280;67668;52.294;4.692;2023-06-26T10:15:57;101863.03;;;31.73;31.79
78383;BME280;67668;52.294;4.692;2023-06-26T10:18:25;101868.38;;;31.85;31.35
78383;BME280;67668;52.294;4.692;2023-06-26T10:20:53;101859.47;;;32.00;31.77
78383;BME280;67668;52.294;4.692;2023-06-26T10:23:23;101845.59;;;32.06;31.68
78383;BME280;67668;52.294;4.692;2023-06-26T10:25:51;101854.97;;;32.15;31.57
78383;BME280;67668;52.294;4.692;2023-06-26T10:28:19;101861.91;;;32.23;31.18
78383;BME280;67668;52.294;4.692;2023-06-26T10:30:46;101863.25;;;32.20;30.06
78383;BME280;67668;52.294;4.692;2023-06-26T10:33:13;101857.56;;;32.27;30.87
78383;BME280;67668;52.294;4.692;2023-06-26T10:35:45;101865.59;;;32.39;30.80
78383;BME280;67668;52.294;4.692;2023-06-26T10:38:11;101862.38;;;32.47;30.30
78383;BME280;67668;52.294;4.692;2023-06-26T10:40:48;101870.94;;;32.55;29.52
78383;BME280;67668;52.294;4.692;2023-06-26T10:43:17;101870.50;;;32.68;30.98
78383;BME280;67668;52.294;4.692;2023-06-26T10:45:46;101868.88;;;32.67;29.60
78383;BME280;67668;52.294;4.692;2023-06-26T10:48:15;101885.66;;;32.76;29.49
78383;BME280;67668;52.294;4.692;2023-06-26T10:50:40;101893.31;;;32.74;29.64
78383;BME280;67668;52.294;4.692;2023-06-26T10:53:11;101901.31;;;32.81;29.80
78383;BME280;67668;52.294;4.692;2023-06-26T10:55:49;101889.00;;;32.83;29.44
78383;BME280;67668;52.294;4.692;2023-06-26T10:58:30;101898.06;;;32.89;28.83
78383;BME280;67668;52.294;4.692;2023-06-26T11:01:19;101899.50;;;32.96;28.91
78383;BME280;67668;52.294;4.692;2023-06-26T11:06:27;101901.22;;;33.07;29.04
78383;BME280;67668;52.294;4.692;2023-06-26T11:08:54;101899.06;;;33.09;28.16
78383;BME280;67668;52.294;4.692;2023-06-26T11:14:21;101913.38;;;33.16;29.31
78383;BME280;67668;52.294;4.692;2023-06-26T11:16:47;101912.00;;;33.19;29.11
78383;BME280;67668;52.294;4.692;2023-06-26T11:19:16;101921.06;;;33.14;28.79
78383;BME280;67668;52.294;4.692;2023-06-26T11:21:41;101917.47;;;33.14;27.70
78383;BME280;67668;52.294;4.692;2023-06-26T11:24:09;101925.44;;;33.15;28.98
78383;BME280;67668;52.294;4.692;2023-06-26T11:26:42;101941.66;;;33.17;29.24
78383;BME280;67668;52.294;4.692;2023-06-26T11:29:08;101938.59;;;33.13;29.00
78383;BME280;67668;52.294;4.692;2023-06-26T11:31:35;101950.41;;;33.14;29.14
78383;BME280;67668;52.294;4.692;2023-06-26T11:34:12;101952.88;;;33.15;28.93
78383;BME280;67668;52.294;4.692;2023-06-26T11:36:39;101955.00;;;33.08;27.49
78383;BME280;67668;52.294;4.692;2023-06-26T11:39:07;101956.06;;;33.02;27.87
78383;BME280;67668;52.294;4.692;2023-06-26T11:41:36;101959.94;;;33.06;28.50
78383;BME280;67668;52.294;4.692;2023-06-26T11:44:09;101950.03;;;33.05;28.22
78383;BME280;67668;52.294;4.692;2023-06-26T11:46:35;101960.41;;;32.98;27.72
78383;BME280;67668;52.294;4.692;2023-06-26T11:49:05;101956.56;;;32.94;28.00
78383;BME280;67668;52.294;4.692;2023-06-26T11:51:31;101970.28;;;32.94;28.70
78383;BME280;67668;52.294;4.692;2023-06-26T11:53:56;101977.91;;;32.87;28.44
78383;BME280;67668;52.294;4.692;2023-06-26T11:56:22;101982.56;;;32.87;29.34
78383;BME280;67668;52.294;4.692;2023-06-26T12:01:44;101967.53;;;32.94;28.27
78383;BME280;67668;52.294;4.692;2023-06-26T12:04:15;101969.97;;;32.91;28.67
78383;BME280;67668;52.294;4.692;2023-06-26T12:06:51;101971.06;;;32.90;28.77
78383;BME280;67668;52.294;4.692;2023-06-26T12:09:18;101969.09;;;32.85;28.91
78383;BME280;67668;52.294;4.692;2023-06-26T12:11:47;101978.13;;;32.81;28.66
78383;BME280;67668;52.294;4.692;2023-06-26T12:14:14;101987.13;;;32.76;28.35
78383;BME280;67668;52.294;4.692;2023-06-26T12:16:40;101987.91;;;32.71;28.44
78383;BME280;67668;52.294;4.692;2023-06-26T12:19:07;101999.66;;;32.67;28.80
78383;BME280;67668;52.294;4.692;2023-06-26T12:24:12;101991.97;;;32.64;28.71
78383;BME280;67668;52.294;4.692;2023-06-26T12:26:38;101998.38;;;32.48;28.48
78383;BME280;67668;52.294;4.692;2023-06-26T12:29:07;102001.88;;;32.43;28.16
78383;BME280;67668;52.294;4.692;2023-06-26T12:31:33;102000.16;;;32.37;27.87
78383;BME280;67668;52.294;4.692;2023-06-26T12:33:59;102002.59;;;32.34;28.40
78383;BME280;67668;52.294;4.692;2023-06-26T12:36:25;102013.00;;;32.32;28.00
78383;BME280;67668;52.294;4.692;2023-06-26T12:38:52;102022.31;;;32.31;28.54
78383;BME280;67668;52.294;4.692;2023-06-26T12:41:18;102014.31;;;32.29;28.09
78383;BME280;67668;52.294;4.692;2023-06-26T12:43:45;102010.75;;;32.28;28.71
78383;BME280;67668;52.294;4.692;2023-06-26T12:46:11;102015.13;;;32.24;28.57
78383;BME280;67668;52.294;4.692;2023-06-26T12:48:41;102012.38;;;32.24;28.08
78383;BME280;67668;52.294;4.692;2023-06-26T12:51:13;102018.66;;;32.25;28.04
78383;BME280;67668;52.294;4.692;2023-06-26T12:53:39;102012.91;;;32.21;27.80
78383;BME280;67668;52.294;4.692;2023-06-26T12:56:06;102001.81;;;32.11;27.32
78383;BME280;67668;52.294;4.692;2023-06-26T12:58:33;102012.25;;;32.14;28.04
78383;BME280;67668;52.294;4.692;2023-06-26T13:00:58;102009.75;;;32.13;28.02
78383;BME280;67668;52.294;4.692;2023-06-26T13:03:23;102021.56;;;32.13;28.08
78383;BME280;67668;52.294;4.692;2023-06-26T13:05:49;102009.19;;;32.11;28.30
78383;BME280;67668;52.294;4.692;2023-06-26T13:08:14;102001.81;;;32.11;28.63